»·PEaware :: N22TS KONP-KCEC

N22TS :: KONP-KCEC

FLIGHT INFORMATION

Flight Status: Arrived
Operator: Privately registered:
United States
More flights under this callsign
Pilot: Thomas S. (17015)
Aircraft: ROBIN DR-400
(DR40)
More flights by this aircraft type
Origin: KONP Newport Mun
United States
Destination: KCEC McNamara
United States
More flights between these airports :: More routes between these airports
Route: OTH
File this flight plan on PilotEdge
Remarks:
Altitude:
(Current/Filed)
4,500ft
Speed:
(Current/Filed)
130kts
Departed: 05-Jul-18 11:32 AM
Arrived: 05-Jul-18 12:59 PM
Distance/Time
Traveled:
168nm/1:27
Distance/Time
To Go:
Arrived

Flight Plot

Page will automatically refresh every two minutes.

Flight plan parsing failed; only flown route is shown


Map Options




Map Legend


Flown Route
Filed Route
Departure Airport
Arrival Airport
Navaid (VOR, NDB)
Fix

Horizontal Profiles

Position Reports

Time Latitude Longitude Heading Altitude Ground
Speed
05-Jul-18 11:28 44.576599 -124.062921 126 116ft 0kts
05-Jul-18 11:29 44.576499 -124.062515 81 118ft 10kts
05-Jul-18 11:30 44.580372 -124.057887 36 132ft 23kts
05-Jul-18 11:31 44.584843 -124.053129 332 157ft 5kts
05-Jul-18 11:32 44.572529 -124.066928 223 623ft 95kts
05-Jul-18 11:33 44.549664 -124.065527 172 2001ft 100kts
05-Jul-18 11:34 44.520752 -124.064221 185 3012ft 106kts
05-Jul-18 11:35 44.491581 -124.066568 186 4011ft 105kts
05-Jul-18 11:36 44.460816 -124.069398 186 4499ft 118kts
05-Jul-18 11:37 44.427815 -124.072575 186 4499ft 119kts
05-Jul-18 11:38 44.394793 -124.075754 186 4499ft 119kts
05-Jul-18 11:39 44.361837 -124.078924 186 4499ft 119kts
05-Jul-18 11:40 44.329652 -124.082012 186 4609ft 117kts
05-Jul-18 11:41 44.296773 -124.085171 186 4609ft 119kts
05-Jul-18 11:43 44.263805 -124.088331 186 4608ft 119kts
05-Jul-18 11:44 44.235904 -124.091003 186 4608ft 119kts
05-Jul-18 11:45 44.202913 -124.094159 186 4608ft 119kts
05-Jul-18 11:46 44.169933 -124.097310 186 4608ft 119kts
05-Jul-18 11:47 44.137006 -124.100452 186 4608ft 119kts
05-Jul-18 11:48 44.104050 -124.103589 186 4607ft 119kts
05-Jul-18 11:49 44.070997 -124.106694 186 4606ft 119kts
05-Jul-18 11:50 44.038058 -124.109804 186 4605ft 119kts
05-Jul-18 11:51 44.005055 -124.112933 187 4604ft 119kts
05-Jul-18 11:52 43.972032 -124.116055 187 4600ft 119kts
05-Jul-18 11:53 43.938784 -124.119202 188 4595ft 120kts
05-Jul-18 11:54 43.905466 -124.122358 188 4590ft 120kts
05-Jul-18 11:55 43.872218 -124.125505 188 4587ft 121kts
05-Jul-18 11:56 43.838464 -124.128697 189 4582ft 122kts
05-Jul-18 11:57 43.804158 -124.131962 189 4487ft 126kts
05-Jul-18 11:58 43.769780 -124.135193 189 4481ft 122kts
05-Jul-18 11:59 43.735729 -124.138405 189 4481ft 122kts
05-Jul-18 12:00 43.701685 -124.141607 189 4481ft 122kts
05-Jul-18 12:01 43.667731 -124.144796 189 4481ft 122kts
05-Jul-18 12:02 43.633690 -124.147990 189 4481ft 122kts
05-Jul-18 12:03 43.599633 -124.151166 189 4481ft 122kts
05-Jul-18 12:04 43.565681 -124.154341 189 4481ft 122kts
05-Jul-18 12:05 43.531624 -124.157520 189 4481ft 122kts
05-Jul-18 12:06 43.497669 -124.160691 189 4481ft 122kts
05-Jul-18 12:07 43.463475 -124.163870 189 4499ft 124kts
05-Jul-18 12:08 43.429088 -124.167085 189 4499ft 124kts
05-Jul-18 12:09 43.394518 -124.169208 187 4499ft 124kts
05-Jul-18 12:10 43.359998 -124.170713 187 4499ft 124kts
05-Jul-18 12:11 43.325404 -124.172198 187 4499ft 124kts
05-Jul-18 12:12 43.291271 -124.173648 187 4499ft 124kts
05-Jul-18 12:13 43.256817 -124.175109 187 4499ft 124kts
05-Jul-18 12:14 43.222225 -124.176584 187 4499ft 124kts
05-Jul-18 12:15 43.187686 -124.178051 187 4499ft 124kts
05-Jul-18 12:16 43.153109 -124.179516 187 4499ft 124kts
05-Jul-18 12:17 43.118562 -124.180978 187 4498ft 124kts
05-Jul-18 12:18 43.083942 -124.182441 187 4498ft 124kts
05-Jul-18 12:19 43.049407 -124.183899 187 4498ft 124kts
05-Jul-18 12:20 43.014921 -124.185352 187 4498ft 124kts
05-Jul-18 12:21 42.980427 -124.186805 187 4498ft 124kts
05-Jul-18 12:22 42.945825 -124.188260 187 4498ft 124kts
05-Jul-18 12:23 42.911268 -124.189712 187 4498ft 124kts
05-Jul-18 12:24 42.876757 -124.191162 187 4499ft 124kts
05-Jul-18 12:25 42.842653 -124.192621 186 4501ft 121kts
05-Jul-18 12:26 42.809230 -124.194035 185 4503ft 119kts
05-Jul-18 12:27 42.776406 -124.195416 184 4506ft 117kts
05-Jul-18 12:28 42.743841 -124.196781 182 4490ft 118kts
05-Jul-18 12:29 42.711344 -124.198125 181 4482ft 117kts
05-Jul-18 12:30 42.678822 -124.199445 181 4482ft 117kts
05-Jul-18 12:31 42.646175 -124.200794 181 4481ft 117kts
05-Jul-18 12:32 42.613635 -124.202146 181 4481ft 117kts
05-Jul-18 12:33 42.581198 -124.203493 181 4481ft 117kts
05-Jul-18 12:34 42.548649 -124.204845 181 4481ft 117kts
05-Jul-18 12:35 42.516048 -124.206198 181 4481ft 117kts
05-Jul-18 12:36 42.483601 -124.207543 181 4481ft 117kts
05-Jul-18 12:37 42.450996 -124.208893 181 4481ft 117kts
05-Jul-18 12:38 42.418541 -124.210235 181 4481ft 117kts
05-Jul-18 12:39 42.388863 -124.211439 181 5128ft 96kts
05-Jul-18 12:40 42.361585 -124.212513 181 6127ft 99kts
05-Jul-18 12:41 42.331226 -124.213774 181 6482ft 121kts
05-Jul-18 12:42 42.297337 -124.215215 181 6477ft 116kts
05-Jul-18 12:43 42.266546 -124.216514 181 6480ft 109kts
05-Jul-18 12:44 42.236343 -124.217817 181 6480ft 108kts
05-Jul-18 12:45 42.206135 -124.219069 181 6480ft 108kts
05-Jul-18 12:46 42.175860 -124.220313 181 6479ft 108kts
05-Jul-18 12:47 42.146017 -124.221537 181 6479ft 108kts
05-Jul-18 12:48 42.115837 -124.222773 181 6479ft 108kts
05-Jul-18 12:49 42.085679 -124.224146 188 6474ft 109kts
05-Jul-18 12:50 42.060299 -124.220933 198 6088ft 86kts
05-Jul-18 12:51 42.041796 -124.228862 196 5200ft 75kts
05-Jul-18 12:52 42.013793 -124.241388 196 4064ft 120kts
05-Jul-18 12:53 41.982811 -124.252657 181 3301ft 116kts
05-Jul-18 12:54 41.951869 -124.248531 176 3448ft 114kts
05-Jul-18 12:55 41.919961 -124.247922 176 3417ft 116kts
05-Jul-18 12:56 41.887937 -124.250126 186 3475ft 117kts
05-Jul-18 12:57 41.854704 -124.249693 180 2781ft 113kts
05-Jul-18 12:58 41.824511 -124.254548 178 1873ft 121kts
05-Jul-18 12:59 41.794928 -124.249733 177 574ft 94kts
05-Jul-18 13:00 41.781235 -124.236272 146 55ft 25kts
05-Jul-18 13:01 41.778198 -124.235891 250 52ft 0kts
05-Jul-18 13:02 41.778198 -124.235891 250 52ft 0kts
05-Jul-18 13:03 41.778198 -124.235891 250 52ft 0kts

Navigation Log

Ident Type
Flight plan parsing failed, navigation log unavailable